Algoma Mariner — CFN5517 — position and weather

sailwx.info

Track history (hours):
 
Tides and Currents Weather Stations Pressure Air Temp Water Temp Dewpoint Dewpoint Depression Visibility Wind Speed Wind Dir Waves Ship Positions

Algoma Mariner

Last reported at 2017-Apr-24 00:12 UTC. Time now 2017-Apr-25 00:59 UTC.
Position N 45°14' W 074°11'.

Length 225 m; draft 10.5 m.

Type: Cargo ship. MMSI: 316014050.

Date/timePositionNaut miles runAvg speedWind from/ knotsBaromVisibWave heightAir tempDewpointWater temp
2017-Apr-24 00:12N 45°14' W 074°11'2 8.9
2017-Apr-23 23:56N 45°14' W 074°07'4 7.6
2017-Apr-23 23:27N 45°13' W 074°02'7 8.3
2017-Apr-23 22:40N 45°18' W 073°56'0 1.6
2017-Apr-23 22:30N 45°18' W 073°56'0 0.9
2017-Apr-23 22:01N 45°19' W 073°55'0 0.8
2017-Apr-23 21:29N 45°19' W 073°55'1 1.4
2017-Apr-23 20:59N 45°20' W 073°55'3 7.1
2017-Apr-23 20:31N 45°21' W 073°51'510.7
2017-Apr-23 20:00N 45°24' W 073°44'3 6.1
2017-Apr-23 19:29N 45°25' W 073°40'3 5.6
2017-Apr-23 18:58N 45°24' W 073°36'1 1.9
2017-Apr-23 18:11N 45°24' W 073°33'1 3.1
2017-Apr-23 17:53N 45°24' W 073°32'2 5.6
2017-Apr-23 17:28N 45°26' W 073°30'345 6.8
2017-Apr-21 15:00N 49°12' W 067°06'   060 / 171023.010.8 5.0
2017-Apr-18 14:00N 46°00' W 073°06'   020 / 81028.010.8 5.0
Track history (hours):
 
Tides and Currents Weather Stations Pressure Air Temp Water Temp Dewpoint Dewpoint Depression Visibility Wind Speed Wind Dir Waves Ship Positions

Algoma Mariner

Last reported at 2017-Apr-24 00:12 UTC. Time now 2017-Apr-25 01:00 UTC.
Position N 45°14' W 074°11'.

Length 225 m; draft 10.5 m.

Type: Cargo ship. MMSI: 316014050.

Date/timePositionNaut miles runAvg speedWind from/ knotsBaromVisibWave heightAir tempDewpointWater temp
2017-Apr-24 00:12N 45°14' W 074°11'2 8.9
2017-Apr-23 23:56N 45°14' W 074°07'4 7.6
2017-Apr-23 23:27N 45°13' W 074°02'7 8.3
2017-Apr-23 22:40N 45°18' W 073°56'0 1.6
2017-Apr-23 22:30N 45°18' W 073°56'0 0.9
2017-Apr-23 22:01N 45°19' W 073°55'0 0.8
2017-Apr-23 21:29N 45°19' W 073°55'1 1.4
2017-Apr-23 20:59N 45°20' W 073°55'3 7.1
2017-Apr-23 20:31N 45°21' W 073°51'510.7
2017-Apr-23 20:00N 45°24' W 073°44'3 6.1
2017-Apr-23 19:29N 45°25' W 073°40'3 5.6
2017-Apr-23 18:58N 45°24' W 073°36'1 1.9
2017-Apr-23 18:11N 45°24' W 073°33'1 3.1
2017-Apr-23 17:53N 45°24' W 073°32'2 5.6
2017-Apr-23 17:28N 45°26' W 073°30'345 6.8
2017-Apr-21 15:00N 49°12' W 067°06'   060 / 171023.010.8 5.0
2017-Apr-18 14:00N 46°00' W 073°06'   020 / 81028.010.8 5.0

Dump ship's entire track history